createdAt,value
2018-08-03T12:34:09.175Z,65.1
2018-08-03T12:34:58.689Z,65.2
2018-08-03T12:35:49.302Z,65.3
2018-08-03T12:36:39.652Z,65.2
2018-08-03T12:37:29.713Z,65.1
2018-08-03T12:38:19.772Z,65.1
2018-08-03T12:39:09.847Z,65.1
2018-08-03T12:39:59.926Z,65.1
2018-08-03T12:40:49.980Z,65.1
2018-08-03T12:41:39.762Z,65.1
2018-08-03T12:42:30.097Z,65.2
2018-08-03T12:43:20.508Z,65.3
2018-08-03T12:44:10.257Z,65.3
2018-08-03T12:45:00.297Z,65.4
2018-08-03T12:45:50.452Z,65.5
2018-08-03T12:46:40.454Z,65.5
2018-08-03T12:47:30.242Z,65.1
2018-08-03T12:48:20.557Z,64.7
2018-08-03T12:49:10.643Z,64.5
2018-08-03T12:50:00.687Z,64.6
2018-08-03T12:50:50.497Z,64.7
2018-08-03T12:51:41.301Z,64.8
2018-08-03T12:52:30.792Z,64.8
2018-08-03T12:53:20.691Z,64.8
2018-08-03T12:54:11.021Z,64.6
2018-08-03T12:55:01.096Z,64.4
2018-08-03T12:55:51.164Z,64.3
2018-08-03T12:56:41.145Z,64.2
2018-08-03T12:57:31.298Z,64
2018-08-03T12:58:21.067Z,63.9
2018-08-03T12:59:11.188Z,63.9
2018-08-03T13:00:01.192Z,63.9
2018-08-03T13:00:51.548Z,63.9
2018-08-03T13:01:41.601Z,63.9
2018-08-03T13:02:31.913Z,63.9
2018-08-03T13:03:21.730Z,63.8
2018-08-03T13:04:29.390Z,63.6
2018-08-03T13:05:19.113Z,63.5
2018-08-03T13:06:09.180Z,63.4
2018-08-03T13:06:59.248Z,63.3
2018-08-03T13:07:50.677Z,63.2
2018-08-03T13:08:39.360Z,63.1
2018-08-03T13:09:29.763Z,62.9
2018-08-03T13:10:19.789Z,62.9
2018-08-03T13:11:09.846Z,62.8
2018-08-03T13:11:59.907Z,62.8
2018-08-03T13:12:49.966Z,62.7
2018-08-03T13:13:39.750Z,62.6
2018-08-03T13:14:30.158Z,62.6
2018-08-03T13:15:20.235Z,62.5
2018-08-03T13:16:10.256Z,62
2018-08-03T13:17:00.309Z,61.5
2018-08-03T13:17:50.371Z,61.3
2018-08-03T13:18:40.443Z,61.3
2018-08-03T13:19:30.498Z,61.4
2018-08-03T13:20:20.446Z,61.8
2018-08-03T13:21:10.800Z,62.1
2018-08-03T13:22:00.684Z,62.4
2018-08-03T13:22:50.801Z,62.8
2018-08-03T13:23:40.294Z,63.1
2018-08-03T13:24:30.620Z,63.4
2018-08-03T13:25:20.395Z,63.6
2018-08-03T13:26:10.551Z,63.9
2018-08-03T13:27:01.081Z,64.1
2018-08-03T13:27:50.868Z,64.4
2018-08-03T13:28:41.215Z,64.6
2018-08-03T13:29:31.712Z,64.9
2018-08-03T13:30:21.351Z,66.1
2018-08-03T13:31:11.407Z,66.3
2018-08-03T13:32:01.190Z,65.5
2018-08-03T13:32:51.528Z,64.1
2018-08-03T13:33:41.317Z,62.4
2018-08-03T13:34:31.657Z,61.1
2018-08-03T13:35:21.730Z,60.3
2018-08-03T13:36:12.046Z,59.9
2018-08-03T13:37:01.860Z,59.9
2018-08-03T13:37:51.920Z,60
2018-08-03T13:38:41.714Z,60.2
2018-08-03T13:39:32.049Z,60.1
2018-08-03T13:40:22.120Z,60.1
2018-08-03T13:41:11.908Z,60.1
2018-08-03T13:42:02.247Z,60.1
2018-08-03T13:42:51.931Z,60.1
2018-08-03T13:43:42.391Z,60.1
2018-08-03T13:44:32.685Z,60.2
2018-08-03T13:45:21.983Z,60.2
2018-08-03T13:46:12.576Z,60.2
2018-08-03T13:47:02.647Z,59.9
2018-08-03T13:47:52.707Z,59.6
2018-08-03T13:48:42.791Z,59.2
2018-08-03T13:49:32.587Z,58.9
2018-08-03T13:50:23.238Z,58.8
2018-08-03T13:51:12.971Z,58.7
2018-08-03T13:52:03.048Z,58.7
2018-08-03T13:52:53.102Z,58.8
2018-08-03T13:53:43.365Z,58.8
2018-08-03T13:54:33.242Z,58.8
2018-08-03T13:55:23.304Z,58.8
2018-08-03T13:56:13.105Z,58.9
2018-08-03T13:57:03.153Z,58.9
2018-08-03T13:57:53.405Z,58.9
2018-08-03T13:58:43.300Z,58.9
2018-08-03T13:59:33.631Z,58.9
2018-08-03T14:00:23.427Z,58.9
2018-08-03T14:01:13.490Z,59
2018-08-03T14:02:03.542Z,59
2018-08-03T14:02:53.892Z,58.9
2018-08-03T14:03:43.396Z,58.9
2018-08-03T14:04:33.750Z,58.8
2018-08-03T14:05:24.096Z,58.7
2018-08-03T14:06:13.870Z,58.6
2018-08-03T14:07:54.298Z,58.5
2018-08-03T14:08:44.365Z,58.4
2018-08-03T14:09:34.405Z,58.3
2018-08-03T14:10:24.480Z,58.3
2018-08-03T14:11:14.565Z,58.2
2018-08-03T14:12:04.757Z,58.1
2018-08-03T14:12:54.667Z,58
2018-08-03T14:13:44.732Z,57.9
2018-08-03T14:14:34.250Z,57.8
2018-08-03T14:15:24.610Z,57.7
2018-08-03T14:16:14.935Z,57.5
2018-08-03T14:17:05.013Z,57.3
2018-08-03T14:17:55.078Z,57.2
2018-08-03T14:18:45.196Z,57
2018-08-03T14:19:35.226Z,56.9
2018-08-03T14:20:24.999Z,56.8
2018-08-03T14:21:15.356Z,56.6
2018-08-03T14:22:05.295Z,56.4
2018-08-03T14:22:55.177Z,56.3
2018-08-03T14:23:45.235Z,56
2018-08-03T14:24:35.323Z,55.8
2018-08-03T14:25:25.887Z,55.6
2018-08-03T14:26:15.745Z,55.3
2018-08-03T14:27:05.619Z,55.1
2018-08-03T14:27:55.875Z,54.9
2018-08-03T14:28:45.912Z,54.7
2018-08-03T14:29:35.709Z,54.4
2018-08-03T14:30:26.065Z,54.3
2018-08-03T14:31:16.297Z,54.1
2018-08-03T14:32:06.215Z,53.9
2018-08-03T14:32:55.704Z,53.7
2018-08-03T14:33:46.336Z,53.6
2018-08-03T14:34:36.093Z,53.4
2018-08-03T14:35:26.159Z,53.3
2018-08-03T14:36:16.242Z,53.1
2018-08-03T14:37:06.572Z,52.8
2018-08-03T14:37:56.639Z,52.6
2018-08-03T14:39:36.777Z,52.2
2018-08-03T14:40:26.839Z,52
2018-08-03T14:41:17.143Z,51.8
2018-08-03T14:42:06.965Z,51.6
2018-08-03T14:42:56.739Z,51.4
2018-08-03T14:43:47.081Z,51.2
2018-08-03T14:44:36.874Z,50.9
2018-08-03T14:45:26.932Z,50.8
2018-08-03T14:46:17.324Z,50.5
2018-08-03T14:47:07.084Z,50.3
2018-08-03T14:47:57.126Z,50.1
2018-08-03T14:48:47.486Z,49.8
2018-08-03T14:49:37.548Z,49.6
2018-08-03T14:50:27.598Z,49.4
2018-08-03T14:51:17.387Z,49.2
2018-08-03T14:52:07.485Z,48.9
2018-08-03T14:52:57.808Z,48.8
2018-08-03T14:53:47.864Z,48.6
2018-08-03T14:54:37.947Z,48.4
2018-08-03T14:55:27.997Z,48.2
2018-08-03T14:56:18.067Z,48
2018-08-03T14:57:07.870Z,47.8
2018-08-03T14:57:58.185Z,47.7
2018-08-03T14:58:48.002Z,47.5
2018-08-03T14:59:38.059Z,47.3
2018-08-03T15:00:28.416Z,47.1
2018-08-03T15:01:18.483Z,46.9
2018-08-03T15:02:08.521Z,46.8
2018-08-03T15:02:58.120Z,46.6
2018-08-03T15:03:48.683Z,46.4
2018-08-03T15:04:38.454Z,46.3
2018-08-03T15:05:28.790Z,46.1
2018-08-03T15:06:18.875Z,45.9
2018-08-03T15:07:08.647Z,45.8
2018-08-03T15:07:58.996Z,45.6
2018-08-03T15:08:49.104Z,45.4
2018-08-03T15:09:39.145Z,45.3
2018-08-03T15:10:28.712Z,45.1
2018-08-03T15:11:19.254Z,44.9
2018-08-03T15:12:09.044Z,44.8
2018-08-03T15:12:59.402Z,44.6
2018-08-03T15:13:49.455Z,44.4
2018-08-03T15:14:39.549Z,44.1
2018-08-03T15:15:29.601Z,43.9
2018-08-03T15:16:19.652Z,43.7
2018-08-03T15:17:09.749Z,43.4
2018-08-03T15:17:59.773Z,43.2
2018-08-03T15:18:49.821Z,42.9
2018-08-03T15:19:40.064Z,42.8
2018-08-03T15:20:29.959Z,42.6
2018-08-03T15:21:20.041Z,42.4
2018-08-03T15:22:09.833Z,42.2
2018-08-03T15:23:00.165Z,41.9
2018-08-03T15:23:49.938Z,41.8
2018-08-03T15:24:40.297Z,41.5
2018-08-03T15:25:30.345Z,41.3
2018-08-03T15:26:20.432Z,41.1
2018-08-03T15:27:09.927Z,40.8
2018-08-03T15:28:00.290Z,40.6
2018-08-03T15:28:50.470Z,40.4
2018-08-03T15:29:40.678Z,40.2
2018-08-03T15:30:30.766Z,40
2018-08-03T15:31:20.819Z,39.8
2018-08-03T15:32:10.609Z,39.7
2018-08-03T15:33:00.671Z,39.5
2018-08-03T15:33:50.718Z,39.4
2018-08-03T15:34:41.072Z,39.2
2018-08-03T15:35:31.135Z,39
2018-08-03T15:36:21.216Z,38.9
2018-08-03T15:37:11.000Z,38.7
2018-08-03T15:38:01.335Z,38.5
2018-08-03T15:38:51.397Z,38.4
2018-08-03T15:39:41.204Z,38.2
2018-08-03T15:40:31.290Z,38
2018-08-03T15:41:21.601Z,37.8
2018-08-03T15:42:11.670Z,37.7
2018-08-03T15:43:01.724Z,37.4
2018-08-03T15:43:50.942Z,37.3
2018-08-03T15:44:41.957Z,37.1
2018-08-03T15:45:31.923Z,37
2018-08-03T15:46:21.985Z,36.9
2018-08-03T15:47:12.178Z,36.7
2018-08-03T15:48:02.151Z,36.6
2018-08-03T15:48:51.902Z,36.5
2018-08-03T15:49:42.265Z,36.3
2018-08-03T15:50:31.848Z,36.2
2018-08-03T15:51:22.386Z,36.1
2018-08-03T15:52:12.435Z,35.9
2018-08-03T15:53:02.508Z,35.8
2018-08-03T15:53:52.577Z,35.6
2018-08-03T15:54:42.365Z,35.5
2018-08-03T15:55:32.693Z,35.3
2018-08-03T15:56:22.780Z,35.2
2018-08-03T15:57:12.834Z,35.1
2018-08-03T15:58:02.621Z,34.9
2018-08-03T15:58:52.970Z,34.8
2018-08-03T15:59:43.030Z,34.7
2018-08-03T19:18:19.379Z,21.8
2018-08-03T19:19:09.705Z,21.8
2018-08-03T19:20:00.008Z,21.8
2018-08-03T19:20:50.055Z,21.8
2018-08-03T19:21:40.071Z,21.7
2018-08-03T19:22:29.417Z,21.7
2018-08-03T19:23:20.169Z,21.7
2018-08-03T19:24:10.086Z,21.7
2018-08-03T19:25:00.174Z,21.7
2018-08-03T19:25:50.228Z,21.7
2018-08-03T19:26:40.020Z,21.6
2018-08-03T19:27:30.104Z,21.6
2018-08-03T19:28:20.151Z,21.6
2018-08-03T19:29:10.221Z,21.6
2018-08-03T19:30:00.285Z,21.6
2018-08-03T19:30:50.622Z,21.6
2018-08-03T19:31:40.430Z,21.6
2018-08-03T19:32:30.485Z,21.6
2018-08-03T19:33:21.495Z,21.6
2018-08-03T19:34:10.898Z,21.5
2018-08-03T19:35:00.958Z,21.5
2018-08-03T19:35:51.017Z,21.5
2018-08-03T19:36:40.790Z,21.5
2018-08-03T19:37:31.137Z,21.5
2018-08-03T19:38:21.404Z,21.4
2018-08-03T19:39:11.276Z,21.4
2018-08-03T19:40:01.325Z,21.4
2018-08-03T19:40:51.401Z,21.4
2018-08-03T19:41:41.468Z,21.4
2018-08-03T19:42:31.542Z,21.4
2018-08-03T19:43:21.608Z,21.4
2018-08-03T19:44:11.673Z,21.4
2018-08-03T19:45:01.275Z,21.4
2018-08-03T19:45:51.783Z,21.4
2018-08-03T19:46:41.803Z,21.4
2018-08-03T19:47:31.644Z,21.4
2018-08-03T19:48:22.108Z,21.4
2018-08-03T19:49:12.083Z,21.3
2018-08-03T19:50:16.487Z,21.3
2018-08-03T19:50:52.112Z,21.3
2018-08-03T19:51:41.680Z,21.3
2018-08-03T19:52:46.903Z,21.3
2018-08-03T19:53:22.078Z,21.3
2018-08-03T19:54:12.440Z,21.3
2018-08-03T19:55:02.215Z,21.3
2018-08-03T19:55:52.556Z,21.3
2018-08-03T19:56:42.624Z,21.3
2018-08-03T19:57:32.695Z,21.3
2018-08-03T19:58:22.858Z,21.3
2018-08-03T19:59:12.819Z,21.3
2018-08-03T20:00:02.882Z,21.3
2018-08-03T20:00:52.979Z,21.3
2018-08-03T20:01:42.520Z,21.3
2018-08-03T20:02:32.590Z,21.3
2018-08-03T20:03:22.667Z,21.3
2018-08-03T20:04:12.450Z,21.3
2018-08-03T20:05:03.020Z,21.3
2018-08-03T20:05:53.067Z,21.2
2018-08-03T20:06:43.309Z,21.2
2018-08-03T20:07:32.621Z,21.2
2018-08-03T20:08:23.547Z,21.2
2018-08-03T20:09:13.608Z,21.2
2018-08-03T20:10:03.689Z,21.2
2018-08-03T20:15:54.130Z,21.1
2018-08-03T20:16:43.907Z,21.1
2018-08-03T20:17:33.970Z,21.1
2018-08-03T20:18:24.043Z,21.1
2018-08-03T20:19:14.393Z,21.1
2018-08-03T20:20:04.432Z,21
2018-08-03T20:21:09.169Z,21.1
2018-08-03T20:21:44.337Z,21
2018-08-03T20:22:34.619Z,21
2018-08-03T20:23:24.712Z,21
2018-08-03T20:24:14.467Z,20.9
2018-08-03T20:25:04.829Z,20.9
2018-08-03T20:25:54.872Z,20.9
2018-08-03T20:26:44.963Z,20.9
2018-08-03T20:27:35.007Z,20.9
2018-08-03T20:28:39.184Z,20.9
2018-08-03T20:29:14.859Z,20.9
2018-08-03T20:30:05.204Z,20.9
2018-08-03T20:31:09.944Z,20.9
2018-08-03T20:31:45.059Z,20.9
2018-08-03T20:32:35.144Z,20.9
2018-08-03T20:33:25.686Z,20.9
2018-08-03T20:34:15.476Z,20.8
2018-08-03T20:35:05.049Z,20.8
2018-08-03T20:35:55.636Z,20.8
2018-08-03T20:36:45.736Z,20.8
2018-08-03T20:37:35.493Z,20.8
2018-08-03T20:38:25.830Z,20.8
2018-08-03T20:39:16.302Z,20.8
2018-08-03T20:40:05.450Z,20.8
2018-08-03T20:40:56.281Z,20.8
2018-08-03T20:41:46.108Z,20.7
2018-08-03T20:42:36.184Z,20.8
2018-08-03T20:43:25.986Z,20.7
2018-08-03T20:44:16.041Z,20.7
2018-08-03T20:45:06.139Z,20.7
2018-08-03T20:45:56.472Z,20.7
2018-08-03T20:46:46.489Z,20.6
2018-08-03T20:47:36.582Z,20.6
2018-08-03T20:48:26.642Z,20.6
2018-08-03T20:49:16.704Z,20.6
2018-08-03T20:50:06.471Z,20.5
2018-08-03T20:50:56.845Z,20.5
2018-08-03T20:51:46.612Z,20.5
2018-08-03T20:52:36.684Z,20.4
2018-08-03T20:53:26.748Z,20.4
2018-08-03T20:54:17.069Z,20.4
2018-08-03T20:55:07.139Z,20.3
2018-08-03T20:55:57.232Z,20.3
2018-08-03T20:56:47.004Z,20.3
2018-08-03T20:57:37.340Z,20.3
2018-08-03T20:58:28.221Z,20.2
2018-08-03T20:59:17.462Z,20.2
2018-08-03T21:00:22.207Z,20.1
2018-08-03T21:00:57.656Z,20.1
2018-08-03T21:01:47.654Z,20.1
2018-08-03T21:02:37.951Z,20.1
2018-08-03T21:03:27.779Z,20
2018-08-03T21:04:17.845Z,19.9
2018-08-03T21:05:07.911Z,19.9
2018-08-03T21:05:57.983Z,19.9
2018-08-03T21:06:48.046Z,19.9
2018-08-03T21:07:37.864Z,19.8
2018-08-03T21:08:28.208Z,19.8
2018-08-03T21:09:18.231Z,19.8
2018-08-03T21:10:08.300Z,19.7
2018-08-03T21:10:58.370Z,19.7
2018-08-03T21:11:48.481Z,19.6
2018-08-03T21:12:38.780Z,19.6
2018-08-03T21:13:28.589Z,19.6
2018-08-03T21:14:18.860Z,19.5
2018-08-03T21:15:08.152Z,19.5
2018-08-03T21:15:58.784Z,19.4
2018-08-03T21:16:48.844Z,19.4
2018-08-03T21:17:39.299Z,19.4
2018-08-03T21:18:28.973Z,19.4
2018-08-03T21:19:19.024Z,19.3
2018-08-03T21:20:09.199Z,19.3
2018-08-03T21:20:59.324Z,19.3
2018-08-03T21:21:49.246Z,19.2
2018-08-03T21:22:39.497Z,19.2
2018-08-03T21:23:29.349Z,19.1
2018-08-03T21:24:19.416Z,19.1
2018-08-03T21:25:09.493Z,19.1
2018-08-03T21:25:59.537Z,19.1
2018-08-03T21:26:49.606Z,19
2018-08-03T21:27:39.677Z,19
2018-08-03T21:28:29.724Z,18.9
2018-08-03T21:29:19.520Z,18.9
2018-08-03T21:30:10.092Z,18.9
2018-08-03T21:30:59.930Z,18.9
2018-08-03T21:32:04.695Z,18.8
2018-08-03T21:32:40.088Z,18.8
2018-08-03T21:33:30.112Z,18.8
2018-08-03T21:37:04.474Z,18.6
2018-08-03T21:37:40.394Z,18.6
2018-08-03T21:38:30.517Z,18.6
2018-08-03T21:39:35.222Z,18.6
2018-08-03T21:40:10.636Z,18.5
2018-08-03T21:41:00.694Z,18.5
2018-08-03T21:41:50.757Z,18.5
2018-08-03T21:42:40.888Z,18.4
2018-08-03T21:43:31.108Z,18.4
2018-08-03T21:44:21.001Z,18.4
2018-08-03T21:45:11.027Z,18.4
2018-08-03T21:46:01.138Z,18.4
2018-08-03T21:46:50.874Z,18.3
2018-08-03T21:47:41.206Z,18.3
2018-08-03T21:48:31.270Z,18.3
2018-08-03T21:49:21.353Z,18.3
2018-08-03T21:50:11.131Z,18.2
2018-08-03T21:51:01.209Z,18.2
2018-08-03T21:52:41.478Z,18.1
2018-08-03T21:53:31.193Z,18.1
2018-08-03T21:54:21.767Z,18.1
2018-08-03T21:55:11.271Z,18.1
2018-08-03T21:56:01.898Z,18
2018-08-03T21:56:51.951Z,18
2018-08-03T21:57:41.946Z,17.9
2018-08-03T21:58:32.073Z,17.9
2018-08-03T21:59:21.872Z,17.9
2018-08-03T22:00:11.911Z,17.9
2018-08-03T22:01:02.271Z,17.9
2018-08-03T22:01:52.557Z,17.9
2018-08-03T22:02:42.400Z,17.8
2018-08-03T22:03:32.500Z,17.8
2018-08-03T22:04:22.255Z,17.8
2018-08-03T22:05:12.597Z,17.8
2018-08-03T22:06:17.373Z,17.8
2018-08-03T22:06:52.456Z,17.8
2018-08-03T22:07:42.809Z,17.7
2018-08-03T22:08:32.940Z,17.7
2018-08-03T22:09:22.942Z,17.7
2018-08-03T22:10:13.004Z,17.6
2018-08-03T22:11:03.074Z,17.6
2018-08-03T22:11:53.187Z,17.6
2018-08-03T22:12:42.890Z,17.6
2018-08-03T22:13:32.974Z,17.6
2018-08-03T22:14:23.311Z,17.6
2018-08-03T22:15:13.376Z,17.6
2018-08-03T22:16:03.425Z,17.6
2018-08-03T22:16:53.536Z,17.5
2018-08-03T22:17:43.601Z,17.5
2018-08-03T22:18:33.646Z,17.5
2018-08-03T22:19:23.720Z,17.5
2018-08-03T22:20:13.473Z,17.4
2018-08-03T22:21:03.824Z,17.4
2018-08-03T22:21:53.946Z,17.4
2018-08-03T22:22:44.205Z,17.4
2018-08-03T22:23:34.266Z,17.4
2018-08-03T22:24:24.362Z,17.4
2018-08-03T22:25:14.211Z,17.4
2018-08-03T22:26:03.970Z,17.4
2018-08-03T22:26:54.313Z,17.4
2018-08-03T22:27:44.404Z,17.4
2018-08-03T22:28:34.231Z,17.4
2018-08-03T22:29:24.463Z,17.4
2018-08-03T22:30:14.554Z,17.4
2018-08-03T22:31:04.625Z,17.4
2018-08-03T22:31:54.385Z,17.4
2018-08-03T22:32:44.461Z,17.5
2018-08-03T22:33:34.223Z,17.4
2018-08-03T22:34:24.594Z,17.5
2018-08-03T22:35:14.937Z,17.5
2018-08-03T22:36:04.426Z,17.5
2018-08-03T22:36:55.060Z,17.5
2018-08-03T22:37:45.107Z,17.6
2018-08-03T22:38:35.396Z,17.5
2018-08-03T22:39:25.281Z,17.5
2018-08-03T22:40:15.314Z,17.5
2018-08-03T22:41:05.362Z,17.5
2018-08-03T22:41:55.401Z,17.5
2018-08-03T22:42:45.094Z,17.5
2018-08-03T22:43:35.280Z,17.6
2018-08-03T22:44:25.399Z,17.5
2018-08-03T22:45:15.649Z,17.6
2018-08-03T22:46:05.799Z,17.6
2018-08-03T22:47:10.416Z,17.6
2018-08-03T22:47:45.885Z,17.5
2018-08-03T22:48:35.952Z,17.6
2018-08-03T22:49:26.291Z,17.6
2018-08-03T22:50:15.799Z,17.6
2018-08-03T22:51:06.154Z,17.6
2018-08-03T22:51:55.886Z,17.6
2018-08-03T22:52:45.981Z,17.6
2018-08-03T22:53:36.374Z,17.6
2018-08-03T22:54:26.426Z,17.6
2018-08-03T22:55:16.178Z,17.6
2018-08-03T22:56:06.525Z,17.6
2018-08-03T22:56:56.823Z,17.6
2018-08-03T22:57:46.674Z,17.6
2018-08-03T22:58:36.455Z,17.6
2018-08-03T22:59:26.517Z,17.6
2018-08-03T23:00:16.854Z,17.6
2018-08-03T23:01:07.284Z,17.6
2018-08-03T23:01:56.720Z,17.6
2018-08-03T23:02:46.764Z,17.6
2018-08-03T23:03:36.823Z,17.6
2018-08-03T23:04:26.883Z,17.6
2018-08-03T23:05:16.973Z,17.6
2018-08-03T23:06:07.308Z,17.6
2018-08-03T23:06:57.378Z,17.6
2018-08-03T23:07:47.435Z,17.5
2018-08-03T23:08:37.218Z,17.5
2018-08-03T23:09:27.676Z,17.5
2018-08-03T23:10:17.642Z,17.5
2018-08-03T23:11:07.704Z,17.5
2018-08-03T23:11:57.492Z,17.5
2018-08-03T23:12:47.845Z,17.5
2018-08-03T23:13:37.615Z,17.4
2018-08-03T23:14:27.687Z,17.5
2018-08-03T23:15:18.026Z,17.4
2018-08-03T23:16:08.090Z,17.4
2018-08-03T23:16:58.153Z,17.4
2018-08-03T23:17:48.219Z,17.4
2018-08-03T23:18:38.300Z,17.4
2018-08-03T23:19:28.380Z,17.4
2018-08-03T23:20:17.868Z,17.4
2018-08-03T23:21:08.474Z,17.4
2018-08-03T23:21:58.317Z,17.4
2018-08-03T23:22:48.338Z,17.4
2018-08-03T23:23:38.725Z,17.4
2018-08-03T23:24:28.447Z,17.4
2018-08-03T23:25:18.815Z,17.4
2018-08-03T23:26:08.908Z,17.3
2018-08-03T23:26:58.653Z,17.3
2018-08-03T23:27:48.709Z,17.3
2018-08-03T23:28:38.773Z,17.3
2018-08-03T23:29:28.839Z,17.3
2018-08-03T23:30:19.180Z,17.3
2018-08-03T23:31:09.269Z,17.3
2018-08-03T23:31:59.059Z,17.3
2018-08-03T23:32:49.381Z,17.3
2018-08-03T23:33:39.434Z,17.2
2018-08-03T23:34:29.500Z,17.2
2018-08-03T23:35:19.577Z,17.2
2018-08-03T23:36:09.635Z,17.2
2018-08-03T23:36:59.716Z,17.2
2018-08-03T23:37:49.768Z,17.2
2018-08-03T23:38:39.844Z,17.2
2018-08-03T23:39:29.633Z,17.1
2018-08-03T23:40:19.956Z,17.1
2018-08-03T23:41:10.048Z,17.1
2018-08-03T23:41:59.807Z,17.1
2018-08-03T23:42:50.181Z,17.1
2018-08-03T23:43:40.226Z,17.1
2018-08-03T23:44:30.295Z,17.1
2018-08-03T23:45:20.365Z,17.1
2018-08-03T23:46:09.673Z,17.1
2018-08-03T23:47:00.007Z,17.1
2018-08-03T23:47:50.060Z,17.1
2018-08-03T23:48:40.134Z,17.1
2018-08-03T23:53:40.730Z,16.9
2018-08-03T23:54:31.074Z,16.9
2018-08-03T23:55:20.849Z,16.9
2018-08-03T23:56:10.962Z,16.9
2018-08-03T23:57:00.974Z,16.9
2018-08-03T23:57:51.561Z,16.9
2018-08-03T23:58:41.165Z,16.9
2018-08-03T23:59:31.512Z,16.9
